Time;durP1;ratioP1;P1;durP2;ratioP2;P2;SDS_P1;SDS_P2;PMS_P1;PMS_P2;Temp;Humidity;BMP_temperature;BMP_pressure;BME280_temperature;BME280_humidity;BME280_pressure;Samples;Min_cycle;Max_cycle;Signal;HPM_P1;HPM_P2
2020/12/18 00:00:48;;;;;;;4.32;3.08;;;15.50;66.40;;;;;;4973532;28;20030;-60
2020/12/18 00:03:14;;;;;;;4.95;3.22;;;14.80;66.00;;;;;;4973843;28;20019;-60
2020/12/18 00:05:42;;;;;;;3.72;3.10;;;15.60;66.50;;;;;;4976291;28;20440;-61
2020/12/18 00:08:15;;;;;;;4.68;2.80;;;15.50;66.50;;;;;;4977773;28;20077;-60
2020/12/18 00:10:41;;;;;;;4.97;2.92;;;15.50;66.50;;;;;;4977456;28;20062;-61
2020/12/18 00:13:07;;;;;;;5.60;3.15;;;15.50;66.50;;;;;;4977610;28;20058;-61
2020/12/18 00:15:39;;;;;;;7.55;2.85;;;15.60;66.50;;;;;;4977981;28;20054;-61
2020/12/18 00:18:11;;;;;;;4.43;2.83;;;15.50;66.40;;;;;;4977277;28;20038;-60
2020/12/18 00:20:37;;;;;;;5.20;2.95;;;15.50;66.40;;;;;;4977318;28;20034;-61
2020/12/18 00:23:03;;;;;;;5.07;2.67;;;15.50;66.50;;;;;;4977191;28;20027;-60
2020/12/18 00:25:28;;;;;;;3.03;2.45;;;15.50;66.50;;;;;;4977407;28;20129;-60
2020/12/18 00:27:54;;;;;;;6.13;2.70;;;15.40;66.40;;;;;;4977227;28;20099;-61
2020/12/18 00:30:19;;;;;;;4.03;2.72;;;15.50;66.50;;;;;;4977128;28;20049;-60
2020/12/18 00:32:45;;;;;;;3.22;2.42;;;15.50;66.50;;;;;;4977256;28;20142;-61
2020/12/18 00:35:11;;;;;;;4.63;2.78;;;15.50;66.50;;;;;;4976951;28;20034;-60
2020/12/18 00:37:38;;;;;;;4.88;3.13;;;15.50;66.50;;;;;;4977242;28;20069;-61
2020/12/18 00:40:08;;;;;;;4.82;2.53;;;15.40;66.40;;;;;;4977210;28;20026;-60
2020/12/18 00:42:34;;;;;;;6.20;3.35;;;15.40;66.50;;;;;;4977119;28;20443;-60
2020/12/18 00:45:00;;;;;;;3.85;2.53;;;15.40;66.50;;;;;;4977203;28;20055;-61
2020/12/18 00:47:25;;;;;;;4.55;2.58;;;15.40;66.50;;;;;;4977043;28;20019;-60
2020/12/18 00:49:51;;;;;;;5.38;2.83;;;15.40;66.50;;;;;;4976764;28;20101;-61
2020/12/18 00:52:17;;;;;;;3.25;2.22;;;15.40;66.60;;;;;;4976963;28;20026;-61
2020/12/18 00:54:42;;;;;;;3.45;2.50;;;15.40;66.60;;;;;;4976686;28;20034;-61
2020/12/18 00:57:08;;;;;;;3.90;2.85;;;15.40;66.50;;;;;;4976947;28;20052;-60
2020/12/18 00:59:33;;;;;;;4.53;2.65;;;15.40;66.50;;;;;;4976895;28;20047;-61
2020/12/18 01:02:06;;;;;;;4.93;2.50;;;15.20;66.40;;;;;;4976477;28;20473;-61
2020/12/18 01:04:31;;;;;;;4.68;2.53;;;15.30;66.50;;;;;;4976487;28;20549;-61
2020/12/18 01:06:57;;;;;;;5.55;2.90;;;15.30;66.50;;;;;;4976761;28;20014;-60
2020/12/18 01:09:23;;;;;;;4.25;2.30;;;15.30;66.50;;;;;;4976750;28;20472;-60
2020/12/18 01:11:50;;;;;;;3.22;2.28;;;15.30;66.50;;;;;;4976378;28;20473;-60
2020/12/18 01:14:16;;;;;;;3.75;2.47;;;15.30;66.50;;;;;;4977169;28;20046;-61
2020/12/18 01:16:45;;;;;;;4.60;2.47;;;15.30;66.50;;;;;;4976502;28;20428;-61
2020/12/18 01:19:10;;;;;;;5.70;2.78;;;15.30;66.50;;;;;;4976575;28;20388;-60
2020/12/18 01:21:37;;;;;;;5.40;2.58;;;15.30;66.50;;;;;;4976528;28;20114;-60
2020/12/18 01:24:02;;;;;;;5.47;2.50;;;15.30;66.50;;;;;;4976382;28;20438;-61
2020/12/18 01:26:28;;;;;;;5.80;2.53;;;15.30;66.50;;;;;;4976123;28;20031;-61
2020/12/18 01:28:53;;;;;;;2.78;2.08;;;15.20;66.50;;;;;;4976073;28;20027;-60
2020/12/18 01:31:19;;;;;;;3.05;2.17;;;15.30;66.50;;;;;;4975955;28;20031;-60
2020/12/18 01:33:45;;;;;;;4.50;2.70;;;15.30;66.60;;;;;;4976213;28;20050;-61
2020/12/18 01:36:10;;;;;;;4.15;2.15;;;15.20;66.50;;;;;;4975933;28;20019;-61
2020/12/18 01:38:36;;;;;;;4.47;2.38;;;15.20;66.50;;;;;;4976147;28;20039;-61
2020/12/18 01:41:01;;;;;;;3.13;2.13;;;15.20;66.50;;;;;;4975826;28;20110;-61
2020/12/18 01:43:27;;;;;;;4.28;2.15;;;15.20;66.60;;;;;;4976104;28;20027;-61
2020/12/18 01:45:56;;;;;;;5.13;2.50;;;15.20;66.50;;;;;;4975697;28;20018;-60
2020/12/18 01:48:21;;;;;;;3.90;2.20;;;15.20;66.60;;;;;;4975934;28;20370;-60
2020/12/18 01:50:47;;;;;;;3.92;2.25;;;15.20;66.60;;;;;;4975893;28;20059;-60
2020/12/18 01:53:14;;;;;;;3.25;2.40;;;15.20;66.60;;;;;;4975458;28;20070;-61
2020/12/18 01:55:39;;;;;;;2.45;1.98;;;15.20;66.60;;;;;;4976088;28;20023;-61
2020/12/18 01:58:05;;;;;;;3.28;2.13;;;15.20;67.30;;;;;;4975559;28;20454;-61
2020/12/18 02:00:31;;;;;;;3.90;2.47;;;15.30;66.60;;;;;;4975429;28;20023;-61
2020/12/18 02:02:57;;;;;;;5.38;2.70;;;15.20;66.60;;;;;;4975385;28;20026;-61
2020/12/18 02:05:23;;;;;;;3.92;2.20;;;15.20;66.70;;;;;;4975671;28;20037;-61
2020/12/18 02:08:08;;;;;;;5.95;2.50;;;15.10;66.60;;;;;;4975637;28;20030;-60
2020/12/18 02:10:34;;;;;;;4.60;2.20;;;15.10;66.60;;;;;;4974987;28;20062;-60
2020/12/18 02:13:00;;;;;;;3.17;2.13;;;15.10;66.60;;;;;;4975377;28;20077;-60
2020/12/18 02:15:26;;;;;;;3.08;2.20;;;15.10;66.60;;;;;;4975869;28;20077;-61
2020/12/18 02:17:52;;;;;;;3.85;2.08;;;15.10;66.60;;;;;;4975480;28;20051;-61
2020/12/18 02:20:18;;;;;;;4.57;2.35;;;15.10;66.60;;;;;;4975148;28;20101;-61
2020/12/18 02:22:44;;;;;;;2.95;2.00;;;15.10;66.60;;;;;;4975315;28;20069;-61
2020/12/18 02:25:11;;;;;;;3.72;2.17;;;15.10;66.70;;;;;;4975301;28;20047;-61
2020/12/18 02:27:39;;;;;;;3.58;2.17;;;15.10;66.70;;;;;;4974385;28;20059;-61
2020/12/18 02:30:09;;;;;;;2.78;1.80;;;15.10;66.60;;;;;;4974892;28;20071;-60
2020/12/18 02:32:35;;;;;;;;;;;15.10;66.70;;;;;;4975574;28;20041;-60
2020/12/18 02:35:00;;;;;;;4.47;2.25;;;15.10;66.70;;;;;;4974890;28;19906;-61
2020/12/18 02:37:26;;;;;;;5.47;2.65;;;15.00;66.60;;;;;;4974765;28;20081;-60
2020/12/18 02:39:59;;;;;;;5.97;2.45;;;15.00;66.60;;;;;;4974801;28;20034;-61
2020/12/18 02:42:24;;;;;;;4.38;2.17;;;15.00;66.60;;;;;;4974713;28;20031;-61
2020/12/18 02:44:50;;;;;;;4.18;2.20;;;15.00;66.60;;;;;;4957755;28;20026;-61
2020/12/18 02:47:16;;;;;;;4.63;2.13;;;15.10;66.60;;;;;;4974924;28;20489;-60
2020/12/18 02:49:41;;;;;;;4.15;2.08;;;15.00;66.60;;;;;;4957251;28;20082;-61
2020/12/18 02:52:08;;;;;;;3.00;2.08;;;15.00;66.60;;;;;;4974828;28;20030;-60
2020/12/18 02:54:34;;;;;;;4.45;2.05;;;14.90;66.50;;;;;;4974565;28;20046;-61
2020/12/18 02:57:00;;;;;;;4.95;2.53;;;15.00;66.60;;;;;;4974667;28;20027;-60
2020/12/18 02:59:25;;;;;;;3.75;1.80;;;15.00;66.60;;;;;;4974647;28;20134;-61
2020/12/18 03:01:51;;;;;;;3.88;2.08;;;14.80;66.50;;;;;;4974735;28;20499;-61
2020/12/18 03:04:16;;;;;;;2.90;2.10;;;15.00;66.60;;;;;;4974411;28;20448;-61
2020/12/18 03:06:42;;;;;;;5.15;2.10;;;15.00;66.60;;;;;;4974662;28;20301;-61
2020/12/18 03:09:08;;;;;;;3.20;2.15;;;15.00;66.60;;;;;;4974510;28;20035;-60
2020/12/18 03:11:33;;;;;;;3.88;2.25;;;15.00;66.60;;;;;;4974452;28;20058;-60
2020/12/18 03:13:59;;;;;;;2.38;1.80;;;14.90;66.50;;;;;;4974470;28;20026;-60
2020/12/18 03:16:24;;;;;;;3.47;1.92;;;14.90;66.50;;;;;;4974594;28;20047;-60
2020/12/18 03:18:50;;;;;;;4.72;2.20;;;14.90;66.50;;;;;;4974416;28;20473;-60
2020/12/18 03:21:16;;;;;;;3.83;1.77;;;14.90;66.60;;;;;;4974505;28;20026;-60
2020/12/18 03:23:41;;;;;;;3.13;2.08;;;14.90;67.20;;;;;;4974221;28;20049;-61
2020/12/18 03:26:07;;;;;;;2.47;2.10;;;14.90;66.60;;;;;;4956587;28;20027;-60
2020/12/18 03:28:32;;;;;;;3.95;2.17;;;14.90;66.60;;;;;;4973925;28;20106;-60
2020/12/18 03:30:58;;;;;;;4.40;2.00;;;15.10;66.70;;;;;;4974097;28;20030;-61
2020/12/18 03:33:24;;;;;;;3.80;1.90;;;14.90;66.60;;;;;;4974069;28;20034;-60
2020/12/18 03:35:49;;;;;;;3.30;2.00;;;14.90;66.50;;;;;;4974056;28;20074;-60
2020/12/18 03:38:15;;;;;;;2.75;1.65;;;14.90;66.60;;;;;;4956536;28;20023;-61
2020/12/18 03:40:41;;;;;;;3.75;1.95;;;14.90;66.60;;;;;;4973159;28;20114;-60
2020/12/18 03:43:07;;;;;;;3.08;1.52;;;14.90;66.60;;;;;;4974006;28;20110;-60
2020/12/18 03:45:32;;;;;;;4.45;2.20;;;14.90;66.70;;;;;;4973789;28;20030;-60
2020/12/18 03:47:58;;;;;;;4.90;2.30;;;;;;;;;;4973886;28;20037;-60
2020/12/18 03:50:24;;;;;;;2.40;1.80;;;14.80;66.00;;;;;;4973982;28;20059;-60
2020/12/18 03:52:50;;;;;;;2.75;1.90;;;14.80;66.60;;;;;;4973879;28;20031;-60
2020/12/18 03:55:15;;;;;;;4.72;2.15;;;14.80;66.60;;;;;;4973891;28;20023;-60
2020/12/18 03:57:41;;;;;;;2.92;1.77;;;14.80;66.60;;;;;;4973641;28;20046;-60
2020/12/18 04:00:08;;;;;;;3.58;1.90;;;14.80;66.70;;;;;;4973572;28;20038;-60
2020/12/18 04:02:34;;;;;;;3.13;1.60;;;14.80;66.70;;;;;;4973874;28;20041;-60
2020/12/18 04:04:59;;;;;;;3.08;1.73;;;14.80;66.70;;;;;;4973586;28;20027;-60
2020/12/18 04:07:25;;;;;;;4.90;2.20;;;14.80;67.40;;;;;;4973823;28;20031;-60
2020/12/18 04:09:50;;;;;;;3.80;1.95;;;14.80;66.70;;;;;;4973767;28;20034;-60
2020/12/18 04:12:16;;;;;;;2.28;1.75;;;14.80;66.80;;;;;;4973649;28;20042;-60
2020/12/18 04:14:42;;;;;;;4.25;2.10;;;14.80;66.70;;;;;;4974257;28;20137;-60
2020/12/18 04:17:07;;;;;;;5.70;2.33;;;14.80;66.70;;;;;;4973324;28;20042;-60
2020/12/18 04:19:33;;;;;;;2.85;1.73;;;14.80;66.80;;;;;;4973695;28;20049;-60
2020/12/18 04:22:00;;;;;;;4.15;1.90;;;14.80;66.70;;;;;;4973655;28;20466;-60
2020/12/18 04:24:25;;;;;;;2.78;1.60;;;14.70;66.70;;;;;;4973285;28;20034;-60
2020/12/18 04:26:51;;;;;;;2.78;1.42;;;14.90;66.80;;;;;;4973637;28;20103;-60
2020/12/18 04:29:18;;;;;;;3.58;1.60;;;14.70;66.70;;;;;;4973311;28;20466;-60
2020/12/18 04:31:43;;;;;;;4.15;2.00;;;14.70;66.70;;;;;;4973275;28;20109;-60
2020/12/18 04:34:10;;;;;;;3.17;1.85;;;14.70;66.70;;;;;;4973500;28;20458;-60
2020/12/18 04:36:35;;;;;;;2.72;1.77;;;14.70;66.70;;;;;;4973148;28;20381;-60
2020/12/18 04:39:03;;;;;;;3.20;1.88;;;14.70;66.70;;;;;;4973287;28;20018;-60
2020/12/18 04:41:28;;;;;;;2.90;1.80;;;14.70;66.70;;;;;;4973261;28;20202;-60
2020/12/18 04:43:55;;;;;;;5.22;1.95;;;14.70;66.80;;;;;;4973168;28;20194;-60
2020/12/18 04:46:22;;;;;;;5.30;2.20;;;14.70;66.70;;;;;;4973211;28;20030;-60
2020/12/18 04:48:49;;;;;;;4.00;1.90;;;14.70;66.70;;;;;;4973336;28;20023;-60
2020/12/18 04:51:25;;;;;;;3.45;1.88;;;14.70;66.80;;;;;;4974993;28;20031;-60
2020/12/18 04:53:53;;;;;;;2.25;1.55;;;14.70;66.80;;;;;;4977019;28;20038;-60
2020/12/18 04:56:26;;;;;;;3.63;1.92;;;14.70;66.80;;;;;;4976722;28;20034;-60
2020/12/18 04:58:56;;;;;;;1.38;1.27;;;14.70;66.80;;;;;;4976592;28;20565;-60
2020/12/18 05:01:25;;;;;;;4.00;1.90;;;14.60;66.70;;;;;;4976869;28;20034;-60
2020/12/18 05:03:51;;;;;;;4.20;1.48;;;14.60;66.80;;;;;;4976851;28;20109;-60
2020/12/18 05:06:18;;;;;;;4.40;1.50;;;14.70;66.80;;;;;;4976689;28;20027;-60
2020/12/18 05:08:44;;;;;;;3.92;1.60;;;14.60;66.80;;;;;;4959196;28;20034;-61
2020/12/18 05:11:23;;;;;;;3.60;1.90;;;14.60;66.80;;;;;;4976611;28;20023;-60
2020/12/18 05:13:53;;;;;;;1.90;1.33;;;14.60;66.70;;;;;;4976649;28;20027;-60
2020/12/18 05:16:23;;;;;;;3.33;1.70;;;14.60;66.80;;;;;;4976877;28;20047;-60
2020/12/18 05:18:49;;;;;;;2.05;1.45;;;14.60;66.80;;;;;;4976613;28;20019;-60
2020/12/18 05:21:16;;;;;;;2.22;1.30;;;14.60;66.80;;;;;;4976508;28;20025;-60
2020/12/18 05:23:43;;;;;;;2.17;1.48;;;14.60;66.80;;;;;;4976220;28;20037;-60
2020/12/18 05:26:11;;;;;;;3.58;1.27;;;14.60;66.80;;;;;;4976458;28;20026;-60
2020/12/18 05:28:47;;;;;;;2.25;1.35;;;14.60;66.80;;;;;;4976054;28;20531;-60
2020/12/18 05:31:18;;;;;;;3.90;1.70;;;14.60;66.70;;;;;;4976411;28;20098;-60
2020/12/18 05:33:46;;;;;;;3.47;1.38;;;14.60;66.70;;;;;;4975998;28;20034;-60
2020/12/18 05:36:13;;;;;;;1.85;1.20;;;14.60;66.70;;;;;;4976294;28;20015;-60
2020/12/18 05:38:39;;;;;;;2.25;1.48;;;14.60;66.70;;;;;;4976238;28;20102;-60
2020/12/18 05:41:07;;;;;;;3.20;1.77;;;14.60;66.80;;;;;;4976163;28;20026;-60
2020/12/18 05:43:40;;;;;;;4.25;1.55;;;14.60;66.80;;;;;;4975773;28;20033;-60
2020/12/18 05:46:28;;;;;;;4.18;1.40;;;14.60;66.80;;;;;;4976070;28;20155;-60
2020/12/18 05:49:05;;;;;;;2.58;1.23;;;14.60;66.80;;;;;;4975994;28;20057;-61
2020/12/18 05:51:36;;;;;;;2.78;1.35;;;14.60;66.90;;;;;;4976031;28;20027;-64
2020/12/18 05:54:19;;;;;;;2.15;1.38;;;14.60;66.90;;;;;;4975867;28;20114;-60
2020/12/18 05:56:52;;;;;;;2.08;1.33;;;14.60;67.00;;;;;;4976002;28;20027;-60
2020/12/18 05:59:19;;;;;;;3.15;1.23;;;14.60;67.00;;;;;;4975550;28;20027;-60
2020/12/18 06:01:53;;;;;;;1.95;1.40;;;14.50;67.00;;;;;;4975431;28;20027;-60
2020/12/18 06:04:23;;;;;;;3.15;1.30;;;14.50;67.00;;;;;;4975415;28;20038;-60
2020/12/18 06:06:50;;;;;;;3.70;1.60;;;14.50;67.10;;;;;;4975407;28;20478;-60
2020/12/18 06:09:18;;;;;;;2.17;1.27;;;14.60;67.20;;;;;;4975669;28;20110;-60
2020/12/18 06:11:43;;;;;;;4.88;1.52;;;14.60;67.10;;;;;;4975312;28;20540;-60
2020/12/18 06:14:12;;;;;;;2.20;1.15;;;14.50;67.10;;;;;;4975282;28;20126;-60
2020/12/18 06:16:49;;;;;;;3.33;1.38;;;14.50;67.20;;;;;;4975964;28;20054;-60
2020/12/18 06:19:16;;;;;;;2.15;0.93;;;14.50;67.20;;;;;;4975326;28;20482;-60
2020/12/18 06:21:55;;;;;;;2.42;1.25;;;14.50;67.20;;;;;;4975184;28;20094;-60
2020/12/18 06:24:21;;;;;;;4.88;1.50;;;14.60;67.30;;;;;;4975366;28;20058;-60
2020/12/18 06:26:55;;;;;;;2.10;1.23;;;14.60;67.40;;;;;;4975361;28;20059;-60
2020/12/18 06:29:23;;;;;;;2.05;1.20;;;14.50;67.40;;;;;;4975299;28;20504;-60
2020/12/18 06:31:48;;;;;;;1.52;0.80;;;14.50;67.50;;;;;;4975263;28;20035;-60
2020/12/18 06:34:27;;;;;;;3.08;1.50;;;14.50;67.40;;;;;;4975072;28;20039;-60
2020/12/18 06:36:57;;;;;;;5.35;1.30;;;14.50;67.50;;;;;;4975380;28;20030;-61
2020/12/18 06:39:26;;;;;;;1.92;1.20;;;14.60;67.60;;;;;;4975132;28;20452;-61
2020/12/18 06:42:20;;;;;;;2.63;1.27;;;14.60;67.50;;;;;;4974723;28;20027;-61
2020/12/18 06:44:47;;;;;;;2.10;1.27;;;14.90;67.70;;;;;;4973856;28;20476;-61
2020/12/18 06:47:23;;;;;;;4.63;1.60;;;14.60;67.60;;;;;;4973655;28;20027;-60
2020/12/18 06:49:55;;;;;;;2.95;1.10;;;14.50;67.50;;;;;;4974632;28;20031;-61
2020/12/18 06:52:53;;;;;;;3.30;1.55;;;14.60;67.50;;;;;;4974792;28;20035;-60
2020/12/18 06:55:25;;;;;;;3.65;1.63;;;14.60;67.50;;;;;;4974875;28;20027;-61
2020/12/18 06:58:06;;;;;;;3.65;1.75;;;14.60;67.60;;;;;;4974744;28;20086;-60
2020/12/18 07:00:32;;;;;;;4.85;1.77;;;14.60;67.70;;;;;;4974642;28;20035;-60
2020/12/18 07:02:58;;;;;;;6.85;1.95;;;14.60;67.70;;;;;;4974334;28;20078;-60
2020/12/18 07:05:31;;;;;;;2.50;1.73;;;14.60;67.80;;;;;;4974601;28;20027;-62
2020/12/18 07:15:50;;;;;;;3.58;1.60;;;14.60;68.10;;;;;;5470164;23;20060;-38
2020/12/18 07:18:23;;;;;;;5.35;1.77;;;14.70;68.60;;;;;;4916876;29;20039;-38
2020/12/18 07:20:51;;;;;;;14.55;1.50;;;14.70;69.00;;;;;;4916714;29;20034;-37
2020/12/18 07:23:18;;;;;;;3.05;2.10;;;14.80;68.40;;;;;;4916906;29;20367;-36
2020/12/18 07:25:45;;;;;;;3.70;1.90;;;14.60;68.00;;;;;;4916871;29;20020;-36
2020/12/18 07:28:11;;;;;;;4.47;1.85;;;14.70;68.10;;;;;;4916870;29;20040;-38
2020/12/18 07:30:42;;;;;;;5.72;1.45;;;14.70;68.10;;;;;;4916606;29;20032;-37
2020/12/18 07:33:10;;;;;;;4.32;2.00;;;14.70;68.20;;;;;;4916516;29;20043;-37
2020/12/18 07:35:57;;;;;;;9.13;2.83;;;14.60;68.30;;;;;;4916579;29;20018;-38
2020/12/18 07:38:27;;;;;;;5.32;2.55;;;14.60;68.30;;;;;;4916833;29;20078;-37
2020/12/18 07:41:06;;;;;;;6.13;1.92;;;14.60;68.40;;;;;;4916597;29;20056;-37
2020/12/18 07:43:34;;;;;;;3.45;2.20;;;14.60;68.40;;;;;;4916671;29;20039;-37
2020/12/18 07:46:19;;;;;;;4.28;2.25;;;14.50;68.40;;;;;;4916622;29;20110;-37
2020/12/18 07:48:46;;;;;;;4.97;1.92;;;14.50;68.40;;;;;;4916381;29;20517;-37
2020/12/18 07:51:20;;;;;;;4.05;2.08;;;14.50;68.30;;;;;;4899406;29;20032;-36
2020/12/18 07:53:55;;;;;;;5.35;1.77;;;14.50;68.30;;;;;;4916597;29;20139;-37
2020/12/18 07:56:24;;;;;;;3.28;1.70;;;14.50;68.30;;;;;;4916646;29;20095;-37
2020/12/18 07:58:59;;;;;;;5.82;1.85;;;14.50;68.30;;;;;;4916125;29;20090;-36
2020/12/18 08:04:55;;;;;;;3.88;2.30;;;14.50;68.40;;;;;;4916448;29;20546;-39
2020/12/18 08:07:21;;;;;;;6.35;2.40;;;14.50;68.50;;;;;;4916461;29;20107;-38
2020/12/18 08:10:00;;;;;;;4.38;2.15;;;14.50;68.50;;;;;;4916330;29;20025;-38
2020/12/18 08:12:26;;;;;;;2.72;1.75;;;14.50;69.20;;;;;;4916151;29;20031;-38
2020/12/18 08:15:06;;;;;;;2.78;1.70;;;14.50;68.50;;;;;;4917535;28;20024;-39
2020/12/18 08:17:33;;;;;;;3.83;2.30;;;14.50;68.50;;;;;;4916141;29;20506;-39
2020/12/18 08:19:58;;;;;;;4.07;1.80;;;14.50;68.50;;;;;;4916417;29;20021;-38
2020/12/18 08:22:26;;;;;;;3.47;1.92;;;14.50;81.70;;;;;;4954115;23;20079;-36
2020/12/18 08:24:56;;;;;;;3.67;1.70;;;14.50;68.50;;;;;;4973050;23;20046;-39
2020/12/18 08:27:24;;;;;;;4.38;1.92;;;14.40;68.50;;;;;;4975983;28;20070;-39
2020/12/18 08:46:40;;;;;;;4.57;1.80;;;14.60;68.50;;;;;;4960961;23;20115;-39
2020/12/18 08:49:21;;;;;;;5.38;1.73;;;14.70;69.30;;;;;;4938755;29;20023;-38
2020/12/18 08:51:50;;;;;;;5.47;1.83;;;14.80;69.20;;;;;;4938971;29;20464;-38
2020/12/18 08:54:25;;;;;;;5.43;2.10;;;14.90;68.70;;;;;;4939422;29;20031;-38
2020/12/18 08:57:13;;;;;;;6.70;2.50;;;14.90;68.50;;;;;;4939015;29;20478;-38
2020/12/18 08:59:54;;;;;;;3.10;1.80;;;15.00;68.10;;;;;;4939446;29;20510;-38
2020/12/18 09:02:21;;;;;;;2.15;1.40;;;14.90;67.80;;;;;;4939281;29;20470;-38
2020/12/18 09:05:06;;;;;;;5.55;1.75;;;15.10;68.40;;;;;;4939627;29;20034;-38
2020/12/18 09:07:43;;;;;;;3.67;1.80;;;15.20;68.60;;;;;;4939308;29;20466;-38
2020/12/18 09:10:12;;;;;;;6.10;1.67;;;15.10;68.20;;;;;;4939583;29;20023;-38
2020/12/18 09:12:44;;;;;;;8.47;2.23;;;15.30;68.20;;;;;;4938974;29;20463;-38
2020/12/18 09:15:24;;;;;;;3.08;1.55;;;15.40;68.10;;;;;;4939151;29;20466;-38
2020/12/18 09:18:05;;;;;;;4.53;1.38;;;15.50;67.80;;;;;;4939182;29;20493;-38
2020/12/18 09:20:34;;;;;;;3.08;1.58;;;15.50;67.50;;;;;;4939615;29;20593;-38
2020/12/18 09:23:12;;;;;;;5.60;1.90;;;15.60;67.40;;;;;;4939239;29;20023;-39
2020/12/18 09:25:59;;;;;;;3.70;1.55;;;15.70;67.30;;;;;;4921926;29;20521;-38
2020/12/18 09:28:26;;;;;;;4.22;1.63;;;15.70;67.00;;;;;;4938926;29;20024;-38
2020/12/18 09:30:58;;;;;;;3.28;2.22;;;15.70;66.80;;;;;;4939159;29;20500;-38
2020/12/18 09:33:28;;;;;;;6.47;1.70;;;15.70;66.60;;;;;;4939033;29;20063;-38
2020/12/18 09:36:16;;;;;;;4.25;1.23;;;15.70;66.50;;;;;;4939075;29;20107;-38
2020/12/18 09:38:45;;;;;;;3.72;1.40;;;15.70;66.30;;;;;;4937418;29;20039;-38
2020/12/18 09:41:18;;;;;;;4.00;1.85;;;15.70;66.30;;;;;;4938963;29;20462;-38
2020/12/18 09:43:45;;;;;;;4.63;1.60;;;15.70;66.30;;;;;;4938584;29;20478;-38
2020/12/18 09:46:12;;;;;;;3.30;1.42;;;15.80;66.40;;;;;;4940582;28;20498;-38
2020/12/18 09:48:39;;;;;;;4.85;1.70;;;15.80;66.30;;;;;;4938848;29;20039;-38
2020/12/18 09:51:06;;;;;;;3.30;1.55;;;15.70;66.00;;;;;;4938400;29;20502;-38
2020/12/18 09:53:40;;;;;;;2.97;1.30;;;15.80;66.30;;;;;;4938531;29;20042;-37
2020/12/18 09:56:09;;;;;;;3.22;1.50;;;15.80;65.90;;;;;;4921312;29;20107;-38
2020/12/18 09:58:36;;;;;;;2.88;1.35;;;15.80;66.20;;;;;;4938658;29;20032;-38
2020/12/18 10:01:04;;;;;;;2.90;1.40;;;15.80;66.40;;;;;;4938779;29;20517;-38
2020/12/18 10:03:30;;;;;;;6.00;1.40;;;15.80;67.20;;;;;;4938417;29;20023;-38
2020/12/18 10:05:57;;;;;;;6.03;1.77;;;15.80;66.50;;;;;;4938180;29;20533;-38
2020/12/18 10:08:25;;;;;;;3.83;1.30;;;15.90;66.30;;;;;;4938112;29;20478;-38
2020/12/18 10:10:51;;;;;;;3.83;1.27;;;15.90;66.10;;;;;;4938331;29;20031;-38
2020/12/18 10:13:18;;;;;;;5.25;1.33;;;15.90;66.20;;;;;;4938311;29;20032;-38
2020/12/18 10:15:46;;;;;;;2.95;1.13;;;15.90;66.20;;;;;;4938038;29;20015;-38
2020/12/18 10:18:13;;;;;;;4.07;1.50;;;15.90;66.20;;;;;;4938493;29;20435;-37
2020/12/18 10:20:41;;;;;;;3.75;1.38;;;15.90;66.00;;;;;;4938196;29;20024;-39
2020/12/18 10:23:08;;;;;;;3.53;1.50;;;16.10;65.90;;;;;;4938382;29;20458;-38
2020/12/18 10:25:34;;;;;;;3.75;1.50;;;15.90;65.80;;;;;;4938126;29;20071;-38
2020/12/18 10:28:02;;;;;;;2.80;1.35;;;16.00;65.70;;;;;;4920988;29;20463;-39
2020/12/18 10:30:28;;;;;;;2.38;1.15;;;15.90;66.00;;;;;;4920692;29;20479;-38
2020/12/18 10:32:55;;;;;;;3.65;1.65;;;15.90;65.90;;;;;;4937535;29;20034;-38
2020/12/18 10:35:21;;;;;;;6.90;1.45;;;16.00;65.80;;;;;;4937756;29;20030;-39
2020/12/18 10:38:12;;;;;;;3.38;1.15;;;16.00;65.60;;;;;;4920586;29;20493;-38
2020/12/18 10:40:40;;;;;;;1.75;0.95;;;16.00;65.40;;;;;;4937485;29;20462;-38
2020/12/18 10:43:11;;;;;;;4.75;1.27;;;16.00;65.30;;;;;;4937740;29;20022;-38
2020/12/18 10:45:38;;;;;;;2.63;1.05;;;16.00;65.30;;;;;;4923269;28;20046;-38
2020/12/18 10:48:05;;;;;;;2.90;1.30;;;16.00;65.60;;;;;;4937736;29;20501;-38
2020/12/18 10:50:33;;;;;;;1.55;1.20;;;16.00;65.50;;;;;;4937390;29;20614;-38
2020/12/18 10:53:00;;;;;;;3.70;1.23;;;16.00;65.50;;;;;;4937187;29;20466;-38
2020/12/18 10:55:26;;;;;;;5.07;1.27;;;16.10;78.70;;;;;;5669642;23;20050;-37
2020/12/18 10:57:52;;;;;;;2.75;1.15;;;16.00;65.60;;;;;;4916910;29;20641;-37
2020/12/18 11:00:18;;;;;;;2.30;1.20;;;16.00;65.30;;;;;;4922456;29;20034;-37
2020/12/18 11:02:43;;;;;;;2.67;0.95;;;16.00;65.40;;;;;;4936265;29;20043;-38
2020/12/18 11:05:09;;;;;;;2.80;1.15;;;15.90;65.40;;;;;;4936322;29;20030;-38
2020/12/18 11:07:34;;;;;;;3.28;1.15;;;15.90;65.50;;;;;;4936299;29;20385;-38
2020/12/18 11:10:01;;;;;;;2.95;1.17;;;15.80;65.50;;;;;;4935987;29;20055;-38
2020/12/18 11:12:27;;;;;;;3.28;0.98;;;15.80;65.60;;;;;;4935791;29;20020;-38
2020/12/18 11:14:53;;;;;;;3.72;0.95;;;15.80;65.80;;;;;;4935470;29;20054;-38
2020/12/18 11:17:18;;;;;;;1.77;0.90;;;15.70;65.80;;;;;;4935486;29;20031;-38
2020/12/18 11:19:44;;;;;;;2.80;1.23;;;15.70;65.90;;;;;;4935805;29;20028;-38
2020/12/18 11:22:09;;;;;;;3.22;1.20;;;15.70;65.90;;;;;;4934075;29;20489;-38
2020/12/18 11:24:37;;;;;;;1.98;1.17;;;15.70;66.00;;;;;;4934202;29;20020;-38
2020/12/18 11:27:03;;;;;;;2.83;1.23;;;15.60;66.20;;;;;;4935126;29;20051;-38
2020/12/18 11:29:28;;;;;;;2.13;1.20;;;15.60;66.10;;;;;;4935527;29;20475;-38
2020/12/18 11:31:54;;;;;;;2.35;0.88;;;15.60;66.20;;;;;;4935736;29;20035;-38
2020/12/18 11:34:20;;;;;;;4.22;0.93;;;15.50;66.20;;;;;;4935517;29;20035;-38
2020/12/18 11:36:46;;;;;;;2.13;1.08;;;15.50;66.40;;;;;;4935879;29;20024;-38
2020/12/18 11:39:12;;;;;;;2.60;1.00;;;15.40;66.30;;;;;;4935491;29;20486;-38
2020/12/18 11:41:38;;;;;;;1.83;0.90;;;15.40;66.50;;;;;;4935524;29;20030;-39
2020/12/18 11:44:03;;;;;;;2.97;0.98;;;15.40;66.50;;;;;;4935608;29;20043;-38
2020/12/18 11:46:29;;;;;;;2.53;1.08;;;15.40;66.50;;;;;;4935486;29;20034;-38
2020/12/18 11:48:55;;;;;;;1.67;1.05;;;15.40;66.60;;;;;;4935468;29;20028;-38
2020/12/18 11:51:27;;;;;;;2.63;1.08;;;15.30;66.60;;;;;;4935010;29;20024;-38
2020/12/18 11:53:53;;;;;;;3.65;0.88;;;15.30;66.60;;;;;;4935268;29;20439;-38
2020/12/18 11:56:19;;;;;;;2.13;1.50;;;15.30;66.60;;;;;;4936142;28;20051;-38
2020/12/18 11:58:45;;;;;;;4.38;0.98;;;15.30;66.60;;;;;;4935543;29;20423;-38
2020/12/18 12:01:11;;;;;;;3.75;1.15;;;15.30;66.70;;;;;;4934597;29;20059;-38
2020/12/18 12:03:36;;;;;;;11.25;1.30;;;15.20;66.70;;;;;;4935470;29;20027;-38
2020/12/18 12:06:04;;;;;;;6.45;1.35;;;15.30;66.90;;;;;;4934853;29;20023;-38
2020/12/18 12:08:30;;;;;;;3.65;1.13;;;15.30;66.90;;;;;;4935423;29;20099;-38
2020/12/18 12:10:58;;;;;;;1.77;1.20;;;15.20;66.90;;;;;;4935286;29;20031;-38
2020/12/18 12:13:25;;;;;;;6.68;1.77;;;15.20;66.90;;;;;;4918502;29;20043;-38
2020/12/18 12:15:51;;;;;;;7.57;1.00;;;15.20;66.90;;;;;;4935481;29;20024;-38
2020/12/18 12:18:17;;;;;;;3.38;1.25;;;15.20;67.00;;;;;;4935411;29;20123;-38
2020/12/18 12:20:42;;;;;;;4.90;1.10;;;15.20;66.90;;;;;;4935048;29;20510;-38
2020/12/18 12:23:08;;;;;;;3.72;1.30;;;15.10;66.90;;;;;;4935141;29;20058;-37
2020/12/18 12:25:34;;;;;;;4.90;1.02;;;15.10;67.00;;;;;;4935299;29;20055;-38
2020/12/18 12:27:59;;;;;;;3.92;1.10;;;15.10;67.00;;;;;;4935415;29;20052;-38
2020/12/18 12:30:25;;;;;;;8.95;1.40;;;15.10;67.00;;;;;;4935195;29;20467;-38
2020/12/18 12:32:54;;;;;;;1.98;1.08;;;15.10;67.00;;;;;;4935144;29;20036;-38
2020/12/18 12:35:21;;;;;;;4.63;1.35;;;15.10;67.10;;;;;;4935057;29;20031;-38
2020/12/18 12:37:46;;;;;;;4.15;1.52;;;15.10;67.10;;;;;;4934797;29;20031;-38
2020/12/18 12:40:12;;;;;;;4.05;1.33;;;15.10;67.10;;;;;;4934624;29;20036;-38
2020/12/18 12:42:38;;;;;;;8.38;2.00;;;15.10;67.00;;;;;;4934926;29;20031;-38
2020/12/18 12:45:04;;;;;;;3.58;1.17;;;15.10;67.10;;;;;;4935218;29;20414;-38
2020/12/18 12:47:30;;;;;;;3.85;0.88;;;15.00;67.10;;;;;;4935162;29;20023;-38
2020/12/18 12:49:55;;;;;;;5.85;1.55;;;15.00;67.10;;;;;;4934962;29;20032;-38
2020/12/18 12:52:21;;;;;;;2.25;0.75;;;15.00;67.00;;;;;;4934796;29;20028;-38
2020/12/18 12:54:46;;;;;;;2.85;1.10;;;15.00;67.10;;;;;;4935031;29;20043;-39
2020/12/18 12:57:12;;;;;;;2.65;1.13;;;15.00;67.20;;;;;;4936517;28;20103;-39
2020/12/18 12:59:38;;;;;;;3.15;1.13;;;15.00;67.10;;;;;;4934164;29;20513;-39
2020/12/18 13:02:06;;;;;;;3.75;1.13;;;15.00;67.10;;;;;;4935035;29;20035;-39
2020/12/18 13:04:32;;;;;;;2.88;1.17;;;15.00;67.10;;;;;;4934764;29;20064;-39
2020/12/18 13:06:58;;;;;;;2.63;1.25;;;15.00;67.20;;;;;;4934976;29;20031;-39
2020/12/18 13:09:24;;;;;;;4.68;1.20;;;15.00;67.20;;;;;;4933138;29;20505;-39
2020/12/18 13:11:49;;;;;;;4.07;1.42;;;15.00;67.10;;;;;;4934466;29;20028;-39
2020/12/18 13:14:15;;;;;;;3.67;1.30;;;15.00;67.10;;;;;;4936323;29;20067;-40
2020/12/18 13:16:41;;;;;;;3.47;1.13;;;14.90;67.00;;;;;;4936312;29;20020;-39
2020/12/18 13:19:07;;;;;;;2.33;1.10;;;14.90;67.10;;;;;;4937708;29;20024;-40
2020/12/18 13:21:34;;;;;;;6.80;1.33;;;14.90;67.10;;;;;;4937918;29;20094;-39